< < Back
Terminal Aerodrome Forecast


Current Version              Previous Versions:   1  2  3  4  5  6  7  8  9  

Terminal Aerodrome Forecast

025
FTUS44 KMRX 180528
TAFTYS
TAF
KTYS 180528Z 1806/1906 VRB03KT P6SM SCT060 BKN200
     FM181400 03005KT P6SM SCT050 BKN140
     FM190100 02004KT P6SM SCT050 BKN120=

Latest METAR

992
SAUS80 KWBC 190200 RRB
MTRTYS
METAR KTYS 190153Z 03007KT 10SM FEW080 SCT150 OVC250 13/05 A3017 RMK AO2
SLP215 T01330050


USA.gov is the U.S. government's official web portal to all federal, state and local government web resources and services.